sensor_id;sensor_type;location;lat;lon;timestamp;P1;durP1;ratioP1;P2;durP2;ratioP2
11604;SDS011;5858;43.076;25.626;2023-05-01T00:00:57;10.33;;;9.17;;
11604;SDS011;5858;43.076;25.626;2023-05-01T00:03:24;14.43;;;10.07;;
11604;SDS011;5858;43.076;25.626;2023-05-01T00:05:57;12.57;;;9.23;;
11604;SDS011;5858;43.076;25.626;2023-05-01T00:08:25;12.93;;;9.63;;
11604;SDS011;5858;43.076;25.626;2023-05-01T00:10:52;13.60;;;11.27;;
11604;SDS011;5858;43.076;25.626;2023-05-01T00:13:21;15.27;;;12.20;;
11604;SDS011;5858;43.076;25.626;2023-05-01T00:15:48;15.47;;;11.77;;
11604;SDS011;5858;43.076;25.626;2023-05-01T00:18:16;13.53;;;11.33;;
11604;SDS011;5858;43.076;25.626;2023-05-01T00:20:43;15.20;;;12.67;;
11604;SDS011;5858;43.076;25.626;2023-05-01T00:23:10;14.10;;;11.93;;
11604;SDS011;5858;43.076;25.626;2023-05-01T00:25:36;14.93;;;12.57;;
11604;SDS011;5858;43.076;25.626;2023-05-01T00:28:04;17.00;;;12.73;;
11604;SDS011;5858;43.076;25.626;2023-05-01T00:30:32;16.23;;;11.57;;
11604;SDS011;5858;43.076;25.626;2023-05-01T00:33:02;14.43;;;10.93;;
11604;SDS011;5858;43.076;25.626;2023-05-01T00:35:29;12.90;;;11.47;;
11604;SDS011;5858;43.076;25.626;2023-05-01T00:38:34;14.27;;;10.60;;
11604;SDS011;5858;43.076;25.626;2023-05-01T00:41:01;13.90;;;11.27;;
11604;SDS011;5858;43.076;25.626;2023-05-01T00:43:28;15.03;;;12.10;;
11604;SDS011;5858;43.076;25.626;2023-05-01T00:45:57;14.30;;;12.50;;
11604;SDS011;5858;43.076;25.626;2023-05-01T00:48:24;13.27;;;11.27;;
11604;SDS011;5858;43.076;25.626;2023-05-01T00:50:51;14.47;;;12.63;;
11604;SDS011;5858;43.076;25.626;2023-05-01T00:53:19;14.90;;;13.03;;
11604;SDS011;5858;43.076;25.626;2023-05-01T00:55:47;21.87;;;15.20;;
11604;SDS011;5858;43.076;25.626;2023-05-01T00:58:15;12.90;;;10.27;;
11604;SDS011;5858;43.076;25.626;2023-05-01T01:00:43;10.87;;;8.23;;
11604;SDS011;5858;43.076;25.626;2023-05-01T01:03:12;10.03;;;7.97;;
11604;SDS011;5858;43.076;25.626;2023-05-01T01:05:42;13.93;;;8.97;;
11604;SDS011;5858;43.076;25.626;2023-05-01T01:08:18;14.60;;;9.97;;
11604;SDS011;5858;43.076;25.626;2023-05-01T01:10:50;14.70;;;11.00;;
11604;SDS011;5858;43.076;25.626;2023-05-01T01:13:24;11.50;;;10.20;;
11604;SDS011;5858;43.076;25.626;2023-05-01T01:15:56;13.00;;;11.70;;
11604;SDS011;5858;43.076;25.626;2023-05-01T01:18:33;12.63;;;10.83;;
11604;SDS011;5858;43.076;25.626;2023-05-01T01:21:07;13.70;;;11.97;;
11604;SDS011;5858;43.076;25.626;2023-05-01T01:30:19;18.60;;;13.53;;
11604;SDS011;5858;43.076;25.626;2023-05-01T01:33:16;18.90;;;11.80;;
11604;SDS011;5858;43.076;25.626;2023-05-01T01:36:07;17.70;;;11.57;;
11604;SDS011;5858;43.076;25.626;2023-05-01T01:38:39;17.17;;;12.40;;
11604;SDS011;5858;43.076;25.626;2023-05-01T01:41:12;15.23;;;11.20;;
11604;SDS011;5858;43.076;25.626;2023-05-01T01:43:45;16.27;;;12.20;;
11604;SDS011;5858;43.076;25.626;2023-05-01T01:46:18;16.23;;;12.20;;
11604;SDS011;5858;43.076;25.626;2023-05-01T01:48:47;17.83;;;12.20;;
11604;SDS011;5858;43.076;25.626;2023-05-01T01:51:18;17.70;;;12.13;;
11604;SDS011;5858;43.076;25.626;2023-05-01T01:53:48;18.20;;;12.50;;
11604;SDS011;5858;43.076;25.626;2023-05-01T01:56:19;18.47;;;13.83;;
11604;SDS011;5858;43.076;25.626;2023-05-01T01:58:49;28.40;;;15.53;;
11604;SDS011;5858;43.076;25.626;2023-05-01T02:01:18;25.90;;;17.60;;
11604;SDS011;5858;43.076;25.626;2023-05-01T02:03:48;24.30;;;15.67;;
11604;SDS011;5858;43.076;25.626;2023-05-01T02:06:18;23.47;;;14.37;;
11604;SDS011;5858;43.076;25.626;2023-05-01T02:08:48;21.83;;;14.97;;
11604;SDS011;5858;43.076;25.626;2023-05-01T02:11:16;20.60;;;14.53;;
11604;SDS011;5858;43.076;25.626;2023-05-01T02:13:46;19.13;;;13.33;;
11604;SDS011;5858;43.076;25.626;2023-05-01T02:16:14;22.87;;;13.43;;
11604;SDS011;5858;43.076;25.626;2023-05-01T02:18:43;24.33;;;13.93;;
11604;SDS011;5858;43.076;25.626;2023-05-01T02:21:12;32.03;;;16.73;;
11604;SDS011;5858;43.076;25.626;2023-05-01T02:23:41;30.63;;;17.97;;
11604;SDS011;5858;43.076;25.626;2023-05-01T02:26:09;30.20;;;17.70;;
11604;SDS011;5858;43.076;25.626;2023-05-01T02:28:41;33.97;;;19.60;;
11604;SDS011;5858;43.076;25.626;2023-05-01T02:31:08;36.77;;;20.00;;
11604;SDS011;5858;43.076;25.626;2023-05-01T02:33:36;27.43;;;17.30;;
11604;SDS011;5858;43.076;25.626;2023-05-01T02:36:03;36.03;;;21.00;;
11604;SDS011;5858;43.076;25.626;2023-05-01T02:38:30;31.90;;;17.87;;
11604;SDS011;5858;43.076;25.626;2023-05-01T02:40:59;32.20;;;18.70;;
11604;SDS011;5858;43.076;25.626;2023-05-01T02:43:27;30.63;;;17.33;;
11604;SDS011;5858;43.076;25.626;2023-05-01T02:45:57;31.70;;;18.70;;
11604;SDS011;5858;43.076;25.626;2023-05-01T02:48:26;33.60;;;19.37;;
11604;SDS011;5858;43.076;25.626;2023-05-01T02:50:56;35.47;;;18.03;;
11604;SDS011;5858;43.076;25.626;2023-05-01T02:53:25;30.10;;;17.87;;
11604;SDS011;5858;43.076;25.626;2023-05-01T02:55:52;26.40;;;15.70;;
11604;SDS011;5858;43.076;25.626;2023-05-01T02:58:21;29.53;;;16.93;;
11604;SDS011;5858;43.076;25.626;2023-05-01T03:00:48;28.60;;;16.90;;
11604;SDS011;5858;43.076;25.626;2023-05-01T03:03:15;22.87;;;15.37;;
11604;SDS011;5858;43.076;25.626;2023-05-01T03:05:42;29.10;;;15.47;;
11604;SDS011;5858;43.076;25.626;2023-05-01T03:08:09;25.97;;;15.70;;
11604;SDS011;5858;43.076;25.626;2023-05-01T03:10:38;23.27;;;14.13;;
11604;SDS011;5858;43.076;25.626;2023-05-01T03:13:06;26.33;;;14.83;;
11604;SDS011;5858;43.076;25.626;2023-05-01T03:15:35;26.47;;;14.53;;
11604;SDS011;5858;43.076;25.626;2023-05-01T03:18:02;23.97;;;15.67;;
11604;SDS011;5858;43.076;25.626;2023-05-01T03:20:29;17.33;;;12.77;;
11604;SDS011;5858;43.076;25.626;2023-05-01T03:22:56;19.13;;;13.57;;
11604;SDS011;5858;43.076;25.626;2023-05-01T03:25:24;21.90;;;13.53;;
11604;SDS011;5858;43.076;25.626;2023-05-01T03:27:51;22.40;;;14.20;;
11604;SDS011;5858;43.076;25.626;2023-05-01T03:30:18;27.63;;;14.50;;
11604;SDS011;5858;43.076;25.626;2023-05-01T03:32:46;26.70;;;14.73;;
11604;SDS011;5858;43.076;25.626;2023-05-01T03:35:13;27.07;;;15.57;;
11604;SDS011;5858;43.076;25.626;2023-05-01T03:37:40;22.57;;;13.57;;
11604;SDS011;5858;43.076;25.626;2023-05-01T03:40:07;24.63;;;15.07;;
11604;SDS011;5858;43.076;25.626;2023-05-01T03:42:36;28.37;;;14.63;;
11604;SDS011;5858;43.076;25.626;2023-05-01T03:45:03;22.90;;;13.23;;
11604;SDS011;5858;43.076;25.626;2023-05-01T03:47:31;25.90;;;13.43;;
11604;SDS011;5858;43.076;25.626;2023-05-01T03:49:59;24.90;;;13.77;;
11604;SDS011;5858;43.076;25.626;2023-05-01T03:52:26;23.67;;;13.43;;
11604;SDS011;5858;43.076;25.626;2023-05-01T03:54:53;16.27;;;10.87;;
11604;SDS011;5858;43.076;25.626;2023-05-01T03:57:21;18.70;;;11.20;;
11604;SDS011;5858;43.076;25.626;2023-05-01T03:59:48;19.80;;;9.87;;
11604;SDS011;5858;43.076;25.626;2023-05-01T04:02:15;16.60;;;8.90;;
11604;SDS011;5858;43.076;25.626;2023-05-01T04:04:42;10.97;;;7.77;;
11604;SDS011;5858;43.076;25.626;2023-05-01T04:07:11;12.47;;;7.73;;
11604;SDS011;5858;43.076;25.626;2023-05-01T04:09:39;15.80;;;9.40;;
11604;SDS011;5858;43.076;25.626;2023-05-01T04:12:06;12.27;;;8.80;;
11604;SDS011;5858;43.076;25.626;2023-05-01T04:14:33;18.50;;;9.20;;
11604;SDS011;5858;43.076;25.626;2023-05-01T04:17:00;14.67;;;8.90;;
11604;SDS011;5858;43.076;25.626;2023-05-01T04:19:27;16.10;;;9.90;;
11604;SDS011;5858;43.076;25.626;2023-05-01T04:21:53;17.33;;;9.90;;
11604;SDS011;5858;43.076;25.626;2023-05-01T04:24:22;16.33;;;9.73;;
11604;SDS011;5858;43.076;25.626;2023-05-01T04:26:49;13.43;;;9.47;;
11604;SDS011;5858;43.076;25.626;2023-05-01T04:29:16;14.67;;;10.77;;
11604;SDS011;5858;43.076;25.626;2023-05-01T04:31:45;15.43;;;10.03;;
11604;SDS011;5858;43.076;25.626;2023-05-01T04:34:16;17.03;;;10.27;;
11604;SDS011;5858;43.076;25.626;2023-05-01T04:36:43;16.43;;;10.43;;
11604;SDS011;5858;43.076;25.626;2023-05-01T04:39:10;19.73;;;11.80;;
11604;SDS011;5858;43.076;25.626;2023-05-01T04:41:39;29.70;;;13.93;;
11604;SDS011;5858;43.076;25.626;2023-05-01T04:44:06;25.67;;;14.90;;
11604;SDS011;5858;43.076;25.626;2023-05-01T04:46:33;35.83;;;16.37;;
11604;SDS011;5858;43.076;25.626;2023-05-01T04:49:00;34.33;;;16.43;;
11604;SDS011;5858;43.076;25.626;2023-05-01T04:51:27;42.93;;;18.73;;
11604;SDS011;5858;43.076;25.626;2023-05-01T04:53:54;39.07;;;18.77;;
11604;SDS011;5858;43.076;25.626;2023-05-01T04:56:21;36.30;;;18.13;;
11604;SDS011;5858;43.076;25.626;2023-05-01T04:58:49;38.97;;;16.47;;
11604;SDS011;5858;43.076;25.626;2023-05-01T05:01:16;35.20;;;15.27;;
11604;SDS011;5858;43.076;25.626;2023-05-01T05:03:43;30.53;;;15.73;;
11604;SDS011;5858;43.076;25.626;2023-05-01T05:06:11;27.63;;;15.33;;
11604;SDS011;5858;43.076;25.626;2023-05-01T05:08:37;23.07;;;12.57;;
11604;SDS011;5858;43.076;25.626;2023-05-01T05:11:09;14.20;;;8.57;;
11604;SDS011;5858;43.076;25.626;2023-05-01T05:13:42;15.20;;;9.27;;
11604;SDS011;5858;43.076;25.626;2023-05-01T05:16:10;17.87;;;10.63;;
11604;SDS011;5858;43.076;25.626;2023-05-01T05:18:37;16.10;;;9.53;;
11604;SDS011;5858;43.076;25.626;2023-05-01T05:21:08;16.93;;;9.70;;
11604;SDS011;5858;43.076;25.626;2023-05-01T05:23:35;12.60;;;8.60;;
11604;SDS011;5858;43.076;25.626;2023-05-01T05:26:02;13.57;;;9.23;;
11604;SDS011;5858;43.076;25.626;2023-05-01T05:28:29;21.77;;;10.47;;
11604;SDS011;5858;43.076;25.626;2023-05-01T05:30:56;21.67;;;11.23;;
11604;SDS011;5858;43.076;25.626;2023-05-01T05:33:25;15.27;;;8.87;;
11604;SDS011;5858;43.076;25.626;2023-05-01T05:35:53;10.10;;;6.17;;
11604;SDS011;5858;43.076;25.626;2023-05-01T05:38:23;10.23;;;6.63;;
11604;SDS011;5858;43.076;25.626;2023-05-01T05:40:50;12.13;;;7.00;;
11604;SDS011;5858;43.076;25.626;2023-05-01T05:43:19;13.37;;;7.47;;
11604;SDS011;5858;43.076;25.626;2023-05-01T05:45:46;12.20;;;6.67;;
11604;SDS011;5858;43.076;25.626;2023-05-01T05:48:13;13.13;;;7.35;;
11604;SDS011;5858;43.076;25.626;2023-05-01T05:50:41;10.65;;;6.60;;
11604;SDS011;5858;43.076;25.626;2023-05-01T05:53:08;16.08;;;7.93;;
11604;SDS011;5858;43.076;25.626;2023-05-01T05:55:35;12.18;;;8.98;;
11604;SDS011;5858;43.076;25.626;2023-05-01T05:58:02;21.15;;;10.27;;
11604;SDS011;5858;43.076;25.626;2023-05-01T06:00:30;18.55;;;10.27;;
11604;SDS011;5858;43.076;25.626;2023-05-01T06:02:57;16.65;;;9.93;;
11604;SDS011;5858;43.076;25.626;2023-05-01T06:05:25;14.80;;;9.55;;
11604;SDS011;5858;43.076;25.626;2023-05-01T06:07:53;14.30;;;9.90;;
11604;SDS011;5858;43.076;25.626;2023-05-01T06:10:25;16.00;;;9.05;;
11604;SDS011;5858;43.076;25.626;2023-05-01T06:12:53;16.08;;;9.43;;
11604;SDS011;5858;43.076;25.626;2023-05-01T06:15:20;18.08;;;10.65;;
11604;SDS011;5858;43.076;25.626;2023-05-01T06:17:49;18.03;;;12.10;;
11604;SDS011;5858;43.076;25.626;2023-05-01T06:20:16;12.17;;;10.97;;
11604;SDS011;5858;43.076;25.626;2023-05-01T06:22:43;10.83;;;9.70;;
11604;SDS011;5858;43.076;25.626;2023-05-01T06:25:15;15.05;;;9.65;;
11604;SDS011;5858;43.076;25.626;2023-05-01T06:27:43;10.05;;;8.77;;
11604;SDS011;5858;43.076;25.626;2023-05-01T06:30:15;9.15;;;7.25;;
11604;SDS011;5858;43.076;25.626;2023-05-01T06:32:49;11.68;;;7.03;;
11604;SDS011;5858;43.076;25.626;2023-05-01T06:35:28;8.82;;;7.47;;
11604;SDS011;5858;43.076;25.626;2023-05-01T06:38:14;12.40;;;8.05;;
11604;SDS011;5858;43.076;25.626;2023-05-01T06:40:43;12.30;;;7.72;;
11604;SDS011;5858;43.076;25.626;2023-05-01T06:43:11;19.92;;;8.63;;
11604;SDS011;5858;43.076;25.626;2023-05-01T06:45:38;16.45;;;9.10;;
11604;SDS011;5858;43.076;25.626;2023-05-01T06:48:06;11.30;;;7.70;;
11604;SDS011;5858;43.076;25.626;2023-05-01T06:50:33;6.60;;;4.47;;
11604;SDS011;5858;43.076;25.626;2023-05-01T06:53:00;9.57;;;6.60;;
11604;SDS011;5858;43.076;25.626;2023-05-01T06:55:27;7.13;;;5.70;;
11604;SDS011;5858;43.076;25.626;2023-05-01T06:57:58;7.20;;;5.13;;
11604;SDS011;5858;43.076;25.626;2023-05-01T07:00:26;6.55;;;4.28;;
11604;SDS011;5858;43.076;25.626;2023-05-01T07:02:53;5.28;;;3.13;;
11604;SDS011;5858;43.076;25.626;2023-05-01T07:05:20;3.80;;;3.38;;
11604;SDS011;5858;43.076;25.626;2023-05-01T07:07:47;8.00;;;4.50;;
11604;SDS011;5858;43.076;25.626;2023-05-01T07:10:14;6.78;;;5.10;;
11604;SDS011;5858;43.076;25.626;2023-05-01T07:12:42;6.35;;;5.68;;
11604;SDS011;5858;43.076;25.626;2023-05-01T07:15:10;6.68;;;5.35;;
11604;SDS011;5858;43.076;25.626;2023-05-01T07:17:38;7.00;;;5.55;;
11604;SDS011;5858;43.076;25.626;2023-05-01T07:20:06;6.05;;;5.38;;
11604;SDS011;5858;43.076;25.626;2023-05-01T07:22:34;12.93;;;5.68;;
11604;SDS011;5858;43.076;25.626;2023-05-01T07:25:04;6.40;;;5.10;;
11604;SDS011;5858;43.076;25.626;2023-05-01T07:27:32;6.22;;;4.70;;
11604;SDS011;5858;43.076;25.626;2023-05-01T07:29:59;5.50;;;4.50;;
11604;SDS011;5858;43.076;25.626;2023-05-01T07:32:28;5.78;;;4.35;;
11604;SDS011;5858;43.076;25.626;2023-05-01T07:34:57;5.35;;;4.55;;
11604;SDS011;5858;43.076;25.626;2023-05-01T07:37:24;5.63;;;4.15;;
11604;SDS011;5858;43.076;25.626;2023-05-01T07:39:52;6.32;;;4.38;;
11604;SDS011;5858;43.076;25.626;2023-05-01T07:42:19;5.68;;;4.60;;
11604;SDS011;5858;43.076;25.626;2023-05-01T07:44:49;7.13;;;5.22;;
11604;SDS011;5858;43.076;25.626;2023-05-01T07:47:16;5.97;;;5.15;;
11604;SDS011;5858;43.076;25.626;2023-05-01T07:49:48;6.88;;;5.78;;
11604;SDS011;5858;43.076;25.626;2023-05-01T07:52:15;4.72;;;4.10;;
11604;SDS011;5858;43.076;25.626;2023-05-01T07:54:42;4.82;;;4.07;;
11604;SDS011;5858;43.076;25.626;2023-05-01T07:57:14;5.15;;;4.07;;
11604;SDS011;5858;43.076;25.626;2023-05-01T07:59:41;4.25;;;3.75;;
11604;SDS011;5858;43.076;25.626;2023-05-01T08:02:08;5.07;;;3.95;;
11604;SDS011;5858;43.076;25.626;2023-05-01T08:04:35;5.57;;;4.15;;
11604;SDS011;5858;43.076;25.626;2023-05-01T08:07:04;4.70;;;4.10;;
11604;SDS011;5858;43.076;25.626;2023-05-01T08:09:33;7.43;;;4.18;;
11604;SDS011;5858;43.076;25.626;2023-05-01T08:12:00;6.05;;;3.70;;
11604;SDS011;5858;43.076;25.626;2023-05-01T08:14:28;5.43;;;4.13;;
11604;SDS011;5858;43.076;25.626;2023-05-01T08:16:55;4.65;;;4.25;;
11604;SDS011;5858;43.076;25.626;2023-05-01T08:19:22;7.20;;;4.75;;
11604;SDS011;5858;43.076;25.626;2023-05-01T08:21:49;8.15;;;5.05;;
11604;SDS011;5858;43.076;25.626;2023-05-01T08:24:18;5.82;;;3.65;;
11604;SDS011;5858;43.076;25.626;2023-05-01T08:26:45;4.15;;;3.70;;
11604;SDS011;5858;43.076;25.626;2023-05-01T08:29:13;4.00;;;3.70;;
11604;SDS011;5858;43.076;25.626;2023-05-01T08:31:40;4.97;;;3.60;;
11604;SDS011;5858;43.076;25.626;2023-05-01T08:34:07;7.55;;;3.03;;
11604;SDS011;5858;43.076;25.626;2023-05-01T08:36:34;3.85;;;2.83;;
11604;SDS011;5858;43.076;25.626;2023-05-01T08:39:02;3.15;;;2.95;;
11604;SDS011;5858;43.076;25.626;2023-05-01T08:41:31;4.35;;;3.30;;
11604;SDS011;5858;43.076;25.626;2023-05-01T08:43:58;3.28;;;3.03;;
11604;SDS011;5858;43.076;25.626;2023-05-01T08:46:29;2.92;;;2.72;;
11604;SDS011;5858;43.076;25.626;2023-05-01T08:49:03;4.22;;;3.65;;
11604;SDS011;5858;43.076;25.626;2023-05-01T08:51:31;6.40;;;4.05;;
11604;SDS011;5858;43.076;25.626;2023-05-01T08:54:00;8.38;;;5.35;;
11604;SDS011;5858;43.076;25.626;2023-05-01T08:56:37;16.08;;;7.95;;
11604;SDS011;5858;43.076;25.626;2023-05-01T08:59:05;26.88;;;12.05;;
11604;SDS011;5858;43.076;25.626;2023-05-01T09:01:38;110.32;;;42.50;;
11604;SDS011;5858;43.076;25.626;2023-05-01T09:04:07;113.68;;;41.85;;
11604;SDS011;5858;43.076;25.626;2023-05-01T09:06:35;159.30;;;62.10;;
11604;SDS011;5858;43.076;25.626;2023-05-01T09:09:02;19.20;;;8.88;;
11604;SDS011;5858;43.076;25.626;2023-05-01T09:11:29;7.18;;;4.80;;
11604;SDS011;5858;43.076;25.626;2023-05-01T09:13:58;6.00;;;3.80;;
11604;SDS011;5858;43.076;25.626;2023-05-01T09:16:29;5.80;;;4.00;;
11604;SDS011;5858;43.076;25.626;2023-05-01T09:18:56;3.55;;;2.92;;
11604;SDS011;5858;43.076;25.626;2023-05-01T09:21:24;3.85;;;3.17;;
11604;SDS011;5858;43.076;25.626;2023-05-01T09:23:55;5.63;;;3.65;;
11604;SDS011;5858;43.076;25.626;2023-05-01T09:26:22;5.72;;;3.40;;
11604;SDS011;5858;43.076;25.626;2023-05-01T09:28:50;6.03;;;3.40;;
11604;SDS011;5858;43.076;25.626;2023-05-01T09:31:23;2.85;;;2.65;;
11604;SDS011;5858;43.076;25.626;2023-05-01T09:33:53;3.33;;;2.97;;
11604;SDS011;5858;43.076;25.626;2023-05-01T09:36:22;3.63;;;2.90;;
11604;SDS011;5858;43.076;25.626;2023-05-01T09:38:56;3.33;;;2.50;;
11604;SDS011;5858;43.076;25.626;2023-05-01T09:41:25;2.90;;;2.50;;
11604;SDS011;5858;43.076;25.626;2023-05-01T09:43:53;3.67;;;2.50;;
11604;SDS011;5858;43.076;25.626;2023-05-01T09:46:22;5.43;;;2.72;;
11604;SDS011;5858;43.076;25.626;2023-05-01T09:48:55;4.93;;;2.70;;
11604;SDS011;5858;43.076;25.626;2023-05-01T09:51:27;3.55;;;2.65;;
11604;SDS011;5858;43.076;25.626;2023-05-01T09:54:00;3.67;;;2.60;;
11604;SDS011;5858;43.076;25.626;2023-05-01T09:56:29;2.78;;;2.50;;
11604;SDS011;5858;43.076;25.626;2023-05-01T09:58:57;5.25;;;3.08;;
11604;SDS011;5858;43.076;25.626;2023-05-01T10:01:41;2.42;;;2.22;;
11604;SDS011;5858;43.076;25.626;2023-05-01T10:04:13;3.25;;;2.35;;
11604;SDS011;5858;43.076;25.626;2023-05-01T10:06:43;2.63;;;2.40;;
11604;SDS011;5858;43.076;25.626;2023-05-01T10:09:25;4.32;;;2.20;;
11604;SDS011;5858;43.076;25.626;2023-05-01T10:11:54;6.20;;;3.00;;
11604;SDS011;5858;43.076;25.626;2023-05-01T10:14:23;2.50;;;2.08;;
11604;SDS011;5858;43.076;25.626;2023-05-01T10:16:53;3.60;;;2.60;;
11604;SDS011;5858;43.076;25.626;2023-05-01T10:19:21;2.00;;;1.80;;
11604;SDS011;5858;43.076;25.626;2023-05-01T10:21:51;2.38;;;2.03;;
11604;SDS011;5858;43.076;25.626;2023-05-01T10:24:21;3.47;;;1.95;;
11604;SDS011;5858;43.076;25.626;2023-05-01T10:26:50;8.95;;;2.60;;
11604;SDS011;5858;43.076;25.626;2023-05-01T10:29:18;2.83;;;2.22;;
11604;SDS011;5858;43.076;25.626;2023-05-01T10:31:51;3.95;;;2.22;;
11604;SDS011;5858;43.076;25.626;2023-05-01T10:34:26;2.15;;;1.95;;
11604;SDS011;5858;43.076;25.626;2023-05-01T10:36:56;3.92;;;2.35;;
11604;SDS011;5858;43.076;25.626;2023-05-01T10:39:29;4.25;;;2.22;;
11604;SDS011;5858;43.076;25.626;2023-05-01T10:42:00;2.25;;;1.90;;
11604;SDS011;5858;43.076;25.626;2023-05-01T10:44:30;4.45;;;2.30;;
11604;SDS011;5858;43.076;25.626;2023-05-01T10:50:10;2.65;;;2.30;;
11604;SDS011;5858;43.076;25.626;2023-05-01T10:55:44;2.33;;;2.00;;
11604;SDS011;5858;43.076;25.626;2023-05-01T10:58:14;4.25;;;1.95;;
11604;SDS011;5858;43.076;25.626;2023-05-01T11:01:27;6.53;;;2.05;;
11604;SDS011;5858;43.076;25.626;2023-05-01T11:03:56;3.38;;;2.20;;
11604;SDS011;5858;43.076;25.626;2023-05-01T11:06:34;2.17;;;1.98;;
11604;SDS011;5858;43.076;25.626;2023-05-01T11:09:34;2.10;;;1.83;;
11604;SDS011;5858;43.076;25.626;2023-05-01T11:12:07;5.75;;;2.40;;
11604;SDS011;5858;43.076;25.626;2023-05-01T11:17:46;2.58;;;2.10;;
11604;SDS011;5858;43.076;25.626;2023-05-01T11:23:21;2.40;;;1.92;;
11604;SDS011;5858;43.076;25.626;2023-05-01T11:25:57;3.60;;;2.05;;
11604;SDS011;5858;43.076;25.626;2023-05-01T11:28:28;3.72;;;1.90;;
11604;SDS011;5858;43.076;25.626;2023-05-01T11:30:57;2.47;;;2.00;;
11604;SDS011;5858;43.076;25.626;2023-05-01T11:33:24;5.85;;;2.30;;
11604;SDS011;5858;43.076;25.626;2023-05-01T11:35:58;2.67;;;2.03;;
11604;SDS011;5858;43.076;25.626;2023-05-01T11:38:27;2.83;;;2.10;;
11604;SDS011;5858;43.076;25.626;2023-05-01T11:40:56;2.08;;;1.88;;
11604;SDS011;5858;43.076;25.626;2023-05-01T11:43:27;2.78;;;2.05;;
11604;SDS011;5858;43.076;25.626;2023-05-01T11:45:57;1.85;;;1.48;;
11604;SDS011;5858;43.076;25.626;2023-05-01T11:48:28;2.45;;;1.98;;
11604;SDS011;5858;43.076;25.626;2023-05-01T11:50:56;2.72;;;1.90;;
11604;SDS011;5858;43.076;25.626;2023-05-01T11:53:23;4.13;;;1.75;;
11604;SDS011;5858;43.076;25.626;2023-05-01T11:55:54;1.73;;;1.60;;
11604;SDS011;5858;43.076;25.626;2023-05-01T11:58:30;1.80;;;1.70;;
11604;SDS011;5858;43.076;25.626;2023-05-01T12:01:01;2.65;;;2.00;;
11604;SDS011;5858;43.076;25.626;2023-05-01T12:03:31;3.60;;;1.63;;
11604;SDS011;5858;43.076;25.626;2023-05-01T12:06:07;2.40;;;1.90;;
11604;SDS011;5858;43.076;25.626;2023-05-01T12:08:35;2.40;;;1.67;;
11604;SDS011;5858;43.076;25.626;2023-05-01T12:11:04;2.53;;;2.05;;
11604;SDS011;5858;43.076;25.626;2023-05-01T12:13:32;2.17;;;1.70;;
11604;SDS011;5858;43.076;25.626;2023-05-01T12:16:00;2.15;;;1.92;;
11604;SDS011;5858;43.076;25.626;2023-05-01T12:18:28;2.55;;;1.60;;
11604;SDS011;5858;43.076;25.626;2023-05-01T12:21:01;2.42;;;1.90;;
11604;SDS011;5858;43.076;25.626;2023-05-01T12:23:29;2.80;;;2.10;;
11604;SDS011;5858;43.076;25.626;2023-05-01T12:25:57;2.80;;;1.83;;
11604;SDS011;5858;43.076;25.626;2023-05-01T12:28:29;1.88;;;1.58;;
11604;SDS011;5858;43.076;25.626;2023-05-01T12:31:01;1.65;;;1.55;;
11604;SDS011;5858;43.076;25.626;2023-05-01T12:33:28;4.15;;;1.75;;
11604;SDS011;5858;43.076;25.626;2023-05-01T12:36:06;2.00;;;1.80;;
11604;SDS011;5858;43.076;25.626;2023-05-01T12:38:35;4.18;;;1.90;;
11604;SDS011;5858;43.076;25.626;2023-05-01T12:41:03;4.13;;;1.80;;
11604;SDS011;5858;43.076;25.626;2023-05-01T12:43:37;2.88;;;1.85;;
11604;SDS011;5858;43.076;25.626;2023-05-01T12:46:12;4.25;;;1.77;;
11604;SDS011;5858;43.076;25.626;2023-05-01T12:48:40;3.60;;;1.80;;
11604;SDS011;5858;43.076;25.626;2023-05-01T12:51:07;2.28;;;1.33;;
11604;SDS011;5858;43.076;25.626;2023-05-01T12:53:34;2.45;;;1.60;;
11604;SDS011;5858;43.076;25.626;2023-05-01T12:56:16;1.45;;;1.35;;
11604;SDS011;5858;43.076;25.626;2023-05-01T12:58:49;2.42;;;1.70;;
11604;SDS011;5858;43.076;25.626;2023-05-01T13:01:22;3.60;;;1.70;;
11604;SDS011;5858;43.076;25.626;2023-05-01T13:03:51;2.10;;;1.55;;
11604;SDS011;5858;43.076;25.626;2023-05-01T13:06:20;2.05;;;1.63;;
11604;SDS011;5858;43.076;25.626;2023-05-01T13:08:48;2.13;;;1.80;;
11604;SDS011;5858;43.076;25.626;2023-05-01T13:11:15;2.28;;;1.80;;
11604;SDS011;5858;43.076;25.626;2023-05-01T13:13:43;2.70;;;1.65;;
11604;SDS011;5858;43.076;25.626;2023-05-01T13:19:25;4.20;;;1.83;;
11604;SDS011;5858;43.076;25.626;2023-05-01T13:21:57;2.90;;;1.88;;
11604;SDS011;5858;43.076;25.626;2023-05-01T13:24:33;2.15;;;1.60;;
11604;SDS011;5858;43.076;25.626;2023-05-01T13:27:01;4.70;;;1.70;;
11604;SDS011;5858;43.076;25.626;2023-05-01T13:29:29;2.90;;;1.60;;
11604;SDS011;5858;43.076;25.626;2023-05-01T13:31:58;1.88;;;1.67;;
11604;SDS011;5858;43.076;25.626;2023-05-01T13:34:27;2.78;;;1.75;;
11604;SDS011;5858;43.076;25.626;2023-05-01T13:36:55;2.80;;;1.65;;
11604;SDS011;5858;43.076;25.626;2023-05-01T13:39:25;2.15;;;1.90;;
11604;SDS011;5858;43.076;25.626;2023-05-01T13:41:52;3.60;;;2.13;;
11604;SDS011;5858;43.076;25.626;2023-05-01T13:44:20;4.30;;;1.50;;
11604;SDS011;5858;43.076;25.626;2023-05-01T13:46:48;1.83;;;1.50;;
11604;SDS011;5858;43.076;25.626;2023-05-01T13:49:18;4.82;;;1.75;;
11604;SDS011;5858;43.076;25.626;2023-05-01T13:51:47;2.75;;;1.60;;
11604;SDS011;5858;43.076;25.626;2023-05-01T13:54:15;2.65;;;1.60;;
11604;SDS011;5858;43.076;25.626;2023-05-01T13:56:43;2.20;;;1.60;;
11604;SDS011;5858;43.076;25.626;2023-05-01T13:59:10;2.80;;;1.50;;
11604;SDS011;5858;43.076;25.626;2023-05-01T14:01:38;2.45;;;1.50;;
11604;SDS011;5858;43.076;25.626;2023-05-01T14:04:10;4.72;;;1.80;;
11604;SDS011;5858;43.076;25.626;2023-05-01T14:06:43;3.70;;;1.60;;
11604;SDS011;5858;43.076;25.626;2023-05-01T14:09:12;3.15;;;1.80;;
11604;SDS011;5858;43.076;25.626;2023-05-01T14:11:42;1.55;;;1.45;;
11604;SDS011;5858;43.076;25.626;2023-05-01T14:14:11;2.08;;;1.70;;
11604;SDS011;5858;43.076;25.626;2023-05-01T14:16:40;2.63;;;1.60;;
11604;SDS011;5858;43.076;25.626;2023-05-01T14:19:08;1.73;;;1.58;;
11604;SDS011;5858;43.076;25.626;2023-05-01T14:21:37;2.92;;;1.60;;
11604;SDS011;5858;43.076;25.626;2023-05-01T14:24:08;1.83;;;1.50;;
11604;SDS011;5858;43.076;25.626;2023-05-01T14:26:35;2.58;;;1.40;;
11604;SDS011;5858;43.076;25.626;2023-05-01T14:29:05;2.10;;;1.70;;
11604;SDS011;5858;43.076;25.626;2023-05-01T14:31:33;1.52;;;1.38;;
11604;SDS011;5858;43.076;25.626;2023-05-01T14:34:00;2.80;;;1.48;;
11604;SDS011;5858;43.076;25.626;2023-05-01T14:36:31;1.95;;;1.50;;
11604;SDS011;5858;43.076;25.626;2023-05-01T14:39:00;2.15;;;1.75;;
11604;SDS011;5858;43.076;25.626;2023-05-01T14:41:29;1.95;;;1.60;;
11604;SDS011;5858;43.076;25.626;2023-05-01T14:44:02;1.92;;;1.58;;
11604;SDS011;5858;43.076;25.626;2023-05-01T14:46:31;1.92;;;1.60;;
11604;SDS011;5858;43.076;25.626;2023-05-01T14:48:59;2.72;;;2.47;;
11604;SDS011;5858;43.076;25.626;2023-05-01T14:51:30;1.83;;;1.50;;
11604;SDS011;5858;43.076;25.626;2023-05-01T14:53:58;1.85;;;1.40;;
11604;SDS011;5858;43.076;25.626;2023-05-01T14:56:26;3.60;;;1.90;;
11604;SDS011;5858;43.076;25.626;2023-05-01T14:58:54;3.05;;;1.35;;
11604;SDS011;5858;43.076;25.626;2023-05-01T15:01:22;2.88;;;1.42;;
11604;SDS011;5858;43.076;25.626;2023-05-01T15:03:49;1.88;;;1.30;;
11604;SDS011;5858;43.076;25.626;2023-05-01T15:06:17;2.80;;;1.42;;
11604;SDS011;5858;43.076;25.626;2023-05-01T15:08:44;1.55;;;1.30;;
11604;SDS011;5858;43.076;25.626;2023-05-01T15:11:11;2.05;;;1.85;;
11604;SDS011;5858;43.076;25.626;2023-05-01T15:13:39;3.38;;;1.58;;